Time;durP1;ratioP1;P1;durP2;ratioP2;P2;SDS_P1;SDS_P2;PMS_P1;PMS_P2;Temp;Humidity;BMP_temperature;BMP_pressure;BME280_temperature;BME280_humidity;BME280_pressure;Samples;Min_cycle;Max_cycle;Signal;HPM_P1;HPM_P2
2021/05/06 00:33:55;;;;;;;1.00;0.95;;;6.30;97.90;;;;;;4977261;28;20177;-73
2021/05/06 00:36:21;;;;;;;3.15;0.65;;;6.10;96.60;;;;;;4976846;28;20200;-73
2021/05/06 00:38:53;;;;;;;1.90;1.40;;;6.10;96.30;;;;;;4975790;28;20180;-72
2021/05/06 01:05:53;;;;;;;2.10;1.08;;;6.20;97.20;;;;;;4976742;28;20240;-73
2021/05/06 01:10:46;;;;;;;3.90;1.03;;;6.10;96.60;;;;;;4976255;28;20233;-72
2021/05/06 01:13:16;;;;;;;0.77;0.77;;;6.00;95.70;;;;;;4976473;28;20385;-73
2021/05/06 01:15:41;;;;;;;0.85;0.80;;;6.00;96.90;;;;;;4976233;28;20220;-73
2021/05/06 01:18:07;;;;;;;1.17;1.07;;;5.90;96.60;;;;;;4976430;28;20172;-73
2021/05/06 01:20:33;;;;;;;1.73;1.23;;;5.80;97.00;;;;;;4976183;28;20229;-73
2021/05/06 01:22:58;;;;;;;3.87;1.40;;;5.90;97.00;;;;;;4976622;28;20586;-73
2021/05/06 01:25:24;;;;;;;0.70;0.70;;;6.10;96.40;;;;;;4975905;28;20170;-73
2021/05/06 01:30:43;;;;;;;2.40;1.13;;;6.20;95.50;;;;;;4976038;28;20178;-73
2021/05/06 01:33:23;;;;;;;1.25;1.05;;;6.30;96.70;;;;;;4975566;28;20322;-73
2021/05/06 01:41:46;;;;;;;1.10;0.82;;;6.50;95.90;;;;;;4975888;28;20224;-73
2021/05/06 01:57:34;;;;;;;1.05;0.95;;;6.20;95.90;;;;;;4975474;28;20276;-73
2021/05/06 02:00:06;;;;;;;1.23;1.05;;;6.00;96.30;;;;;;4975363;28;20212;-72
2021/05/06 02:02:32;;;;;;;0.75;0.75;;;5.90;96.90;;;;;;4975283;28;20205;-73
2021/05/06 02:04:57;;;;;;;2.40;1.23;;;5.90;97.30;;;;;;4975402;28;20220;-73
2021/05/06 02:07:23;;;;;;;1.30;1.20;;;5.90;97.40;;;;;;4975177;28;20764;-73
2021/05/06 02:09:49;;;;;;;3.03;1.00;;;5.90;95.60;;;;;;4975354;28;20177;-73
2021/05/06 02:12:16;;;;;;;1.60;1.30;;;5.70;96.10;;;;;;4975188;28;20562;-73
2021/05/06 02:14:52;;;;;;;1.80;1.05;;;5.70;96.70;;;;;;4973983;28;20191;-72
2021/05/06 02:17:18;;;;;;;6.00;1.30;;;5.70;96.10;;;;;;4973732;28;20180;-72
2021/05/06 02:19:47;;;;;;;1.20;1.10;;;5.80;95.90;;;;;;4975070;28;20255;-73
2021/05/06 02:22:13;;;;;;;1.35;1.35;;;5.70;96.00;;;;;;4974990;28;20436;-73
2021/05/06 02:24:39;;;;;;;1.47;1.37;;;5.70;96.50;;;;;;4975200;28;20184;-74
2021/05/06 02:27:04;;;;;;;1.23;0.70;;;5.80;96.50;;;;;;4974678;28;20408;-73
2021/05/06 02:29:30;;;;;;;1.03;1.03;;;5.70;96.50;;;;;;4975592;28;20192;-72
2021/05/06 02:31:56;;;;;;;1.07;0.97;;;5.50;96.20;;;;;;4975020;28;20192;-73
2021/05/06 02:34:21;;;;;;;3.50;1.00;;;5.70;96.10;;;;;;4973603;28;20185;-73
2021/05/06 02:36:47;;;;;;;1.00;1.00;;;5.90;95.00;;;;;;4974694;28;20247;-73
2021/05/06 02:39:13;;;;;;;2.83;1.17;;;5.90;95.50;;;;;;4974834;28;20287;-73
2021/05/06 02:41:38;;;;;;;1.67;0.70;;;6.00;96.10;;;;;;4974677;28;20543;-72
2021/05/06 02:44:04;;;;;;;3.90;1.10;;;6.00;96.30;;;;;;4974657;28;20174;-73
2021/05/06 02:46:29;;;;;;;1.23;1.13;;;6.10;96.20;;;;;;4974688;28;20542;-72
2021/05/06 02:48:55;;;;;;;0.70;0.70;;;6.20;95.60;;;;;;4974818;28;20186;-73
2021/05/06 02:51:26;;;;;;;3.23;1.10;;;6.30;94.60;;;;;;4974782;28;20192;-73
2021/05/06 02:53:54;;;;;;;1.02;0.95;;;6.40;95.90;;;;;;4974572;28;20249;-73
2021/05/06 02:56:42;;;;;;;1.45;1.35;;;6.40;95.10;;;;;;4973119;28;20277;-74
2021/05/06 03:04:42;;;;;;;1.35;1.25;;;6.50;96.50;;;;;;4974900;28;20181;-73
2021/05/06 03:07:09;;;;;;;6.30;1.05;;;6.40;95.00;;;;;;4973009;28;20175;-73
2021/05/06 03:12:22;;;;;;;4.60;0.90;;;6.60;94.60;;;;;;4974658;28;20206;-73
2021/05/06 03:25:08;;;;;;;1.05;0.95;;;6.60;95.70;;;;;;4974393;28;20187;-73
2021/05/06 03:27:37;;;;;;;2.97;1.98;;;6.40;95.10;;;;;;4973115;28;20208;-72
2021/05/06 03:32:44;;;;;;;0.82;0.70;;;6.40;95.00;;;;;;4974098;28;20194;-72
2021/05/06 03:35:29;;;;;;;0.88;0.88;;;6.30;94.90;;;;;;4974196;28;20534;-74
2021/05/06 04:18:36;;;;;;;1.00;0.90;;;6.80;95.00;;;;;;4977415;28;20281;-73
2021/05/06 04:26:38;;;;;;;1.02;0.93;;;6.70;95.60;;;;;;4977140;28;20252;-73
2021/05/06 04:37:16;;;;;;;4.38;1.20;;;7.30;95.60;;;;;;4976939;28;20713;-72
2021/05/06 04:39:51;;;;;;;1.33;1.00;;;7.10;95.80;;;;;;4976986;28;20285;-73
2021/05/06 04:55:43;;;;;;;1.13;1.02;;;7.40;95.90;;;;;;4976727;28;20189;-73
2021/05/06 05:03:34;;;;;;;1.20;1.10;;;7.70;96.00;;;;;;4976565;28;20158;-73
2021/05/06 05:06:00;;;;;;;2.63;1.05;;;7.60;95.70;;;;;;4976475;28;20174;-72
2021/05/06 05:08:30;;;;;;;1.75;1.45;;;7.80;95.50;;;;;;4975166;28;20181;-73
2021/05/06 05:11:22;;;;;;;0.98;0.88;;;7.90;95.20;;;;;;4975129;28;20743;-74
2021/05/06 05:24:20;;;;;;;1.00;1.00;;;7.80;96.80;;;;;;4976099;28;20672;-74
2021/05/06 05:26:46;;;;;;;1.20;1.00;;;8.00;97.20;;;;;;4974583;28;20184;-73
2021/05/06 05:29:12;;;;;;;2.65;0.90;;;8.20;96.00;;;;;;4975994;28;20199;-74
2021/05/06 05:31:38;;;;;;;2.03;1.57;;;8.50;93.10;;;;;;4976005;28;20665;-74
2021/05/06 05:34:16;;;;;;;2.10;1.30;;;9.00;91.60;;;;;;4975986;28;20165;-73
2021/05/06 05:36:42;;;;;;;0.60;0.60;;;9.20;92.10;;;;;;4975403;28;20173;-74
2021/05/06 05:39:18;;;;;;;1.10;0.80;;;10.00;90.20;;;;;;4976112;28;20208;-73
2021/05/06 05:54:47;;;;;;;1.23;1.17;;;10.70;74.90;;;;;;4975792;28;20673;-73
2021/05/06 05:57:13;;;;;;;1.00;0.73;;;10.30;79.50;;;;;;4973712;28;20184;-73
2021/05/06 05:59:39;;;;;;;3.08;1.67;;;10.00;81.50;;;;;;4975508;28;20223;-73
2021/05/06 06:02:06;;;;;;;3.03;1.20;;;9.60;81.20;;;;;;4975001;28;20678;-74
2021/05/06 06:04:32;;;;;;;1.02;1.02;;;10.10;80.60;;;;;;4975759;28;20820;-74
2021/05/06 06:06:58;;;;;;;1.52;1.52;;;10.60;76.60;;;;;;4973692;28;20184;-73
2021/05/06 06:09:24;;;;;;;1.53;1.07;;;10.70;75.80;;;;;;4975259;28;20177;-73
2021/05/06 06:11:49;;;;;;;2.78;1.17;;;10.90;73.60;;;;;;4975168;28;20195;-73
2021/05/06 06:14:34;;;;;;;1.67;1.57;;;10.80;72.10;;;;;;4973477;28;20268;-73
2021/05/06 06:17:00;;;;;;;3.00;1.50;;;10.80;71.20;;;;;;4974979;28;20716;-73
2021/05/06 06:19:31;;;;;;;1.80;0.90;;;10.70;75.10;;;;;;4973535;28;20256;-73
2021/05/06 06:22:02;;;;;;;1.65;0.93;;;11.00;73.20;;;;;;4975067;28;20201;-74
2021/05/06 06:24:28;;;;;;;0.93;0.88;;;11.30;71.50;;;;;;4974766;28;20181;-73
2021/05/06 06:26:54;;;;;;;4.63;1.27;;;11.40;70.40;;;;;;4974761;28;20261;-73
2021/05/06 06:29:22;;;;;;;1.43;0.90;;;11.30;72.20;;;;;;4974436;28;20688;-73
2021/05/06 06:31:50;;;;;;;0.90;0.90;;;11.50;68.60;;;;;;4974864;28;20189;-73
2021/05/06 06:34:15;;;;;;;0.70;0.70;;;12.10;66.30;;;;;;4974736;28;20411;-73
2021/05/06 06:36:45;;;;;;;0.70;0.70;;;12.20;64.60;;;;;;4974893;28;20411;-74
2021/05/06 06:39:13;;;;;;;0.97;0.97;;;12.50;65.30;;;;;;4974387;28;20192;-73
2021/05/06 06:41:39;;;;;;;2.63;1.27;;;12.80;63.40;;;;;;4974774;28;20515;-71
2021/05/06 06:44:05;;;;;;;1.00;0.70;;;13.00;62.50;;;;;;4973691;28;20412;-72
2021/05/06 06:46:31;;;;;;;0.57;0.57;;;12.80;59.80;;;;;;4974342;28;20407;-72
2021/05/06 06:48:58;;;;;;;3.47;1.03;;;12.60;62.70;;;;;;4975019;28;20492;-72
2021/05/06 06:51:24;;;;;;;1.40;1.33;;;12.80;62.60;;;;;;4974274;28;20188;-72
2021/05/06 06:53:50;;;;;;;1.23;0.90;;;12.80;60.60;;;;;;4974702;28;20424;-72
2021/05/06 06:56:16;;;;;;;0.97;0.83;;;12.50;60.10;;;;;;4974169;28;20439;-72
2021/05/06 06:58:44;;;;;;;1.20;0.93;;;12.40;60.80;;;;;;4974931;28;20443;-73
2021/05/06 07:01:10;;;;;;;1.10;0.87;;;12.30;63.10;;;;;;4974515;28;20988;-72
2021/05/06 07:03:35;;;;;;;1.93;1.00;;;12.40;63.80;;;;;;4974450;28;20473;-72
2021/05/06 07:06:02;;;;;;;0.90;0.83;;;12.40;61.30;;;;;;4973191;28;20204;-74
2021/05/06 07:08:32;;;;;;;4.83;1.13;;;12.00;61.70;;;;;;4974596;28;20838;-73
2021/05/06 07:11:00;;;;;;;3.30;2.93;;;12.10;62.40;;;;;;4974857;28;20423;-71
2021/05/06 07:13:27;;;;;;;1.27;0.93;;;12.30;62.70;;;;;;4974472;28;20453;-73
2021/05/06 07:15:55;;;;;;;1.20;1.10;;;12.10;63.20;;;;;;4974263;28;20408;-73
2021/05/06 07:18:21;;;;;;;1.00;1.00;;;10.90;64.00;;;;;;4973218;28;20417;-73
2021/05/06 07:20:48;;;;;;;2.00;0.97;;;10.80;67.00;;;;;;4974322;28;20456;-72
2021/05/06 07:23:18;;;;;;;2.23;1.47;;;11.00;65.50;;;;;;4974239;28;20446;-73
2021/05/06 07:25:45;;;;;;;1.58;0.68;;;11.10;66.50;;;;;;4974319;28;20432;-73
2021/05/06 07:28:18;;;;;;;1.43;1.00;;;11.30;66.40;;;;;;4974458;28;20177;-73
2021/05/06 07:30:46;;;;;;;1.45;1.27;;;11.20;67.00;;;;;;4974317;28;20428;-73
2021/05/06 07:33:12;;;;;;;2.65;1.40;;;11.10;64.90;;;;;;4974185;28;20264;-73
2021/05/06 07:35:38;;;;;;;1.10;0.98;;;10.90;66.30;;;;;;4972916;28;20275;-73
2021/05/06 07:38:05;;;;;;;1.20;1.10;;;10.70;67.50;;;;;;4974118;28;20189;-73
2021/05/06 07:40:31;;;;;;;1.20;1.10;;;10.60;67.90;;;;;;4974433;28;20212;-73
2021/05/06 07:42:57;;;;;;;0.77;0.77;;;10.70;68.00;;;;;;4978012;28;20177;-73
2021/05/06 07:45:23;;;;;;;2.00;1.00;;;10.40;67.20;;;;;;4977857;28;20180;-74
2021/05/06 07:47:49;;;;;;;0.83;0.83;;;10.30;70.00;;;;;;4977690;28;20173;-74
2021/05/06 07:50:16;;;;;;;2.23;0.87;;;10.30;70.40;;;;;;4977853;28;20466;-73
2021/05/06 07:52:43;;;;;;;1.27;1.02;;;10.30;69.40;;;;;;4977633;28;20203;-73
2021/05/06 07:55:11;;;;;;;1.45;0.80;;;10.50;68.70;;;;;;4977324;28;20557;-73
2021/05/06 07:57:37;;;;;;;1.05;0.98;;;10.40;69.80;;;;;;4977785;28;20255;-73
2021/05/06 08:00:11;;;;;;;0.90;0.90;;;10.50;70.70;;;;;;4977460;28;20340;-74
2021/05/06 08:02:37;;;;;;;0.73;0.70;;;10.40;71.80;;;;;;4977731;28;20540;-73
2021/05/06 08:05:03;;;;;;;1.40;1.07;;;10.50;72.10;;;;;;4977394;28;20175;-73
2021/05/06 08:07:29;;;;;;;1.20;1.15;;;10.30;73.30;;;;;;4977528;28;20644;-73
2021/05/06 08:09:54;;;;;;;0.80;0.77;;;10.20;75.10;;;;;;4977838;28;20184;-73
2021/05/06 08:12:21;;;;;;;0.87;0.87;;;10.10;78.60;;;;;;4976038;28;20206;-72
2021/05/06 08:14:47;;;;;;;2.67;0.98;;;10.00;80.90;;;;;;4977370;28;20288;-71
2021/05/06 08:17:13;;;;;;;1.50;0.85;;;9.90;83.40;;;;;;4977306;28;20173;-73
2021/05/06 08:19:40;;;;;;;6.07;2.30;;;9.80;82.80;;;;;;4976902;28;20281;-72
2021/05/06 08:22:06;;;;;;;3.50;2.92;;;9.50;87.40;;;;;;4977172;28;20184;-72
2021/05/06 08:24:32;;;;;;;1.95;1.35;;;9.60;91.30;;;;;;4977304;28;20272;-72
2021/05/06 08:26:58;;;;;;;2.93;1.10;;;9.60;89.60;;;;;;4976990;28;20256;-71
2021/05/06 08:29:23;;;;;;;15.70;14.33;;;9.60;90.00;;;;;;4977318;28;20259;-73
2021/05/06 08:31:49;;;;;;;3.40;1.40;;;9.30;90.30;;;;;;4977059;28;20196;-73
2021/05/06 08:34:15;;;;;;;1.80;1.10;;;8.80;93.00;;;;;;4976982;28;20539;-72
2021/05/06 08:36:40;;;;;;;9.20;8.40;;;8.90;93.10;;;;;;4977076;28;20635;-73
2021/05/06 08:39:06;;;;;;;1.57;1.47;;;9.00;94.20;;;;;;4975532;28;20208;-72
2021/05/06 08:41:33;;;;;;;1.80;1.53;;;9.10;93.20;;;;;;4976034;28;20200;-73
2021/05/06 08:44:01;;;;;;;1.10;0.95;;;9.20;94.80;;;;;;4977094;28;20303;-72
2021/05/06 08:46:33;;;;;;;4.80;1.85;;;9.10;93.70;;;;;;4976556;28;20192;-72
2021/05/06 08:49:03;;;;;;;1.08;0.98;;;9.20;94.10;;;;;;4977196;28;20192;-72
2021/05/06 08:51:29;;;;;;;1.17;1.13;;;9.40;93.30;;;;;;4976551;28;20546;-72
2021/05/06 08:53:55;;;;;;;4.37;1.40;;;9.60;92.30;;;;;;4976879;28;20172;-72
2021/05/06 08:56:21;;;;;;;1.13;1.03;;;9.70;92.00;;;;;;4976396;28;20417;-72
2021/05/06 08:58:47;;;;;;;2.83;1.25;;;9.30;92.40;;;;;;4976659;28;20495;-72
2021/05/06 09:01:14;;;;;;;1.47;1.40;;;9.10;93.50;;;;;;4976373;28;20283;-72
2021/05/06 09:03:40;;;;;;;2.10;1.63;;;8.90;93.80;;;;;;4976668;28;20411;-72
2021/05/06 09:06:09;;;;;;;2.70;1.33;;;8.70;93.80;;;;;;4976444;28;20229;-72
2021/05/06 09:08:40;;;;;;;1.65;1.52;;;8.80;94.90;;;;;;4976476;28;20281;-73
2021/05/06 09:11:07;;;;;;;2.30;1.33;;;8.90;95.20;;;;;;4976308;28;20204;-73
2021/05/06 09:13:33;;;;;;;2.38;1.48;;;9.00;95.70;;;;;;4976470;28;20260;-72
2021/05/06 09:15:59;;;;;;;1.13;1.13;;;9.00;95.80;;;;;;4976095;28;20207;-73
2021/05/06 09:18:45;;;;;;;1.42;1.33;;;8.90;96.10;;;;;;4976451;28;20584;-73
2021/05/06 09:21:31;;;;;;;2.45;1.38;;;8.80;95.80;;;;;;4976172;28;20572;-72
2021/05/06 09:24:16;;;;;;;2.95;1.33;;;8.80;95.30;;;;;;4976059;28;20224;-72
2021/05/06 09:26:42;;;;;;;2.08;1.10;;;8.90;95.60;;;;;;4975784;28;20171;-73
2021/05/06 09:29:10;;;;;;;1.45;1.25;;;8.80;94.90;;;;;;4976045;28;20173;-72
2021/05/06 09:31:39;;;;;;;1.20;1.20;;;8.90;94.90;;;;;;4974603;28;20256;-72
2021/05/06 09:34:07;;;;;;;2.67;1.65;;;9.00;95.40;;;;;;4975937;28;20193;-72
2021/05/06 09:36:32;;;;;;;1.52;1.40;;;9.10;95.30;;;;;;4975469;28;20177;-72
2021/05/06 09:39:00;;;;;;;2.40;1.20;;;9.00;95.40;;;;;;4974449;28;20169;-72
2021/05/06 09:41:34;;;;;;;2.33;1.52;;;8.70;96.20;;;;;;4976159;28;20185;-72
2021/05/06 09:44:14;;;;;;;3.92;1.25;;;8.50;96.10;;;;;;4976153;28;20270;-72
2021/05/06 09:46:42;;;;;;;2.08;1.52;;;8.40;97.10;;;;;;4975794;28;20171;-72
2021/05/06 09:49:08;;;;;;;2.08;1.38;;;8.30;96.80;;;;;;4974398;28;20227;-72
2021/05/06 09:51:42;;;;;;;1.50;1.40;;;8.10;97.00;;;;;;4975577;28;20594;-72
2021/05/06 09:54:13;;;;;;;1.50;1.40;;;8.20;97.10;;;;;;4976088;28;20176;-72
2021/05/06 09:56:41;;;;;;;2.53;1.55;;;8.10;97.00;;;;;;4975502;28;20179;-72
2021/05/06 09:59:08;;;;;;;6.68;4.80;;;8.10;97.50;;;;;;4975990;28;20541;-72
2021/05/06 10:01:42;;;;;;;17.25;9.10;;;8.10;97.20;;;;;;4975368;28;20233;-72
2021/05/06 10:04:26;;;;;;;2.50;2.40;;;8.10;98.40;;;;;;4975249;28;20176;-72
2021/05/06 10:07:08;;;;;;;1.80;1.30;;;8.00;96.80;;;;;;4975156;28;20175;-72
2021/05/06 10:09:51;;;;;;;1.00;0.90;;;8.00;96.90;;;;;;4975199;28;20197;-72
2021/05/06 10:12:17;;;;;;;1.50;1.40;;;8.10;98.10;;;;;;4973361;28;20195;-72
2021/05/06 10:14:45;;;;;;;2.20;1.58;;;8.10;98.20;;;;;;4975158;28;20180;-72
2021/05/06 10:17:16;;;;;;;1.90;1.15;;;8.20;98.90;;;;;;4975090;28;20180;-72
2021/05/06 10:19:42;;;;;;;2.67;1.13;;;8.30;97.90;;;;;;4975161;28;20201;-72
2021/05/06 10:22:11;;;;;;;3.92;2.55;;;8.30;97.70;;;;;;4974956;28;20242;-72
2021/05/06 10:24:43;;;;;;;3.80;1.75;;;8.40;97.70;;;;;;4974954;28;20195;-72
2021/05/06 10:27:11;;;;;;;1.33;1.23;;;8.60;97.00;;;;;;4974795;28;20176;-72
2021/05/06 10:29:37;;;;;;;1.85;1.75;;;8.80;96.60;;;;;;4974995;28;20181;-72
2021/05/06 10:32:03;;;;;;;1.85;0.93;;;9.00;96.90;;;;;;4973588;28;20208;-72
2021/05/06 10:34:33;;;;;;;0.82;0.82;;;9.10;96.90;;;;;;4975011;28;20180;-72
2021/05/06 10:37:00;;;;;;;1.33;1.23;;;8.80;96.70;;;;;;4974714;28;20228;-72
2021/05/06 10:39:36;;;;;;;1.90;1.73;;;8.80;97.30;;;;;;4974720;28;20683;-72
2021/05/06 10:42:22;;;;;;;1.90;1.70;;;8.80;97.40;;;;;;4974774;28;20615;-72
2021/05/06 10:44:48;;;;;;;2.15;1.83;;;8.90;96.70;;;;;;4974496;28;20175;-72
2021/05/06 10:47:17;;;;;;;1.87;1.70;;;8.90;96.80;;;;;;4974653;28;20252;-72
2021/05/06 10:49:43;;;;;;;2.85;1.10;;;9.10;97.10;;;;;;4974664;28;20173;-72
2021/05/06 10:52:10;;;;;;;2.57;1.40;;;9.10;97.00;;;;;;4974567;28;20419;-72
2021/05/06 10:54:39;;;;;;;1.08;1.00;;;9.10;96.70;;;;;;4974931;28;20204;-72
2021/05/06 10:57:11;;;;;;;3.05;1.45;;;9.00;97.00;;;;;;4973304;28;20187;-72
2021/05/06 10:59:42;;;;;;;1.92;1.55;;;9.00;98.20;;;;;;4974233;28;20219;-72
2021/05/06 11:02:09;;;;;;;4.93;1.50;;;9.20;98.30;;;;;;4973122;28;20303;-71
2021/05/06 11:04:40;;;;;;;1.60;1.20;;;9.30;97.90;;;;;;4974465;28;20169;-72
2021/05/06 11:07:18;;;;;;;1.52;1.30;;;9.30;98.00;;;;;;4974380;28;20180;-72
2021/05/06 11:09:46;;;;;;;1.50;1.20;;;9.40;97.10;;;;;;4974559;28;20172;-72
2021/05/06 11:12:39;;;;;;;1.20;0.98;;;9.20;97.10;;;;;;4974068;28;20216;-72
2021/05/06 11:15:06;;;;;;;2.78;1.35;;;9.10;98.10;;;;;;4975722;28;20734;-71
2021/05/06 11:17:37;;;;;;;1.77;1.15;;;8.90;98.10;;;;;;4978489;28;20508;-72
2021/05/06 11:20:28;;;;;;;3.45;1.88;;;8.90;98.60;;;;;;4977206;28;20200;-72
2021/05/06 11:22:58;;;;;;;1.30;1.20;;;8.70;99.60;;;;;;4978265;28;20225;-72
2021/05/06 11:25:37;;;;;;;1.58;1.48;;;8.70;99.60;;;;;;4978347;28;20176;-71
2021/05/06 11:28:15;;;;;;;1.90;1.15;;;8.60;99.90;;;;;;4978361;28;20512;-72
2021/05/06 11:30:45;;;;;;;1.70;0.95;;;8.80;99.80;;;;;;4978329;28;20260;-72
2021/05/06 11:33:24;;;;;;;1.10;1.00;;;8.60;99.80;;;;;;4978143;28;20689;-71
2021/05/06 11:36:08;;;;;;;1.05;1.00;;;8.60;99.90;;;;;;4978357;28;20196;-72
2021/05/06 11:38:41;;;;;;;1.35;1.23;;;8.60;99.90;;;;;;4978351;28;20196;-72
2021/05/06 11:41:25;;;;;;;1.50;1.40;;;8.50;99.90;;;;;;4978067;28;20204;-72
2021/05/06 11:43:56;;;;;;;0.77;0.70;;;8.60;99.90;;;;;;4978244;28;20264;-72
2021/05/06 11:46:29;;;;;;;1.10;0.90;;;8.70;99.90;;;;;;4976591;28;20670;-72
2021/05/06 11:49:04;;;;;;;1.10;1.00;;;8.70;99.90;;;;;;4978086;28;20271;-71
2021/05/06 11:51:42;;;;;;;2.25;1.98;;;8.60;99.90;;;;;;4977787;28;20199;-72
2021/05/06 11:54:16;;;;;;;1.30;1.20;;;8.50;99.90;;;;;;4978502;28;20594;-72
2021/05/06 11:56:49;;;;;;;1.35;1.20;;;8.50;99.90;;;;;;4977807;28;20168;-72
2021/05/06 11:59:18;;;;;;;0.93;0.93;;;8.60;99.90;;;;;;4977796;28;20203;-71
2021/05/06 12:01:47;;;;;;;1.63;1.35;;;8.50;99.90;;;;;;4977400;28;20300;-71
2021/05/06 12:04:32;;;;;;;1.10;1.02;;;8.70;99.90;;;;;;4977747;28;20220;-72
2021/05/06 12:06:59;;;;;;;0.63;0.63;;;8.70;99.90;;;;;;4977544;28;20168;-71
2021/05/06 12:09:27;;;;;;;2.88;1.30;;;8.60;99.90;;;;;;4977792;28;20255;-72
2021/05/06 12:11:53;;;;;;;0.50;0.50;;;8.70;99.90;;;;;;4977566;28;20190;-71
2021/05/06 12:14:29;;;;;;;0.60;0.60;;;8.80;99.90;;;;;;4977570;28;20261;-72
2021/05/06 12:16:55;;;;;;;0.93;0.80;;;8.90;99.90;;;;;;4977142;28;20176;-71
2021/05/06 12:19:21;;;;;;;0.80;0.80;;;8.80;99.90;;;;;;4977316;28;20232;-71
2021/05/06 12:21:52;;;;;;;1.80;0.60;;;8.80;99.90;;;;;;4977286;28;20189;-71
2021/05/06 12:24:41;;;;;;;1.25;1.13;;;8.70;99.90;;;;;;4977405;28;20175;-72
2021/05/06 12:27:18;;;;;;;0.50;0.50;;;8.60;99.90;;;;;;4975696;28;20627;-71
2021/05/06 12:29:45;;;;;;;0.70;0.60;;;8.60;99.90;;;;;;4977353;28;20185;-72
2021/05/06 12:32:46;;;;;;;0.55;0.55;;;8.70;99.90;;;;;;4977220;28;20228;-72
2021/05/06 12:35:12;;;;;;;1.10;0.93;;;8.70;99.90;;;;;;4963540;28;20191;-72
2021/05/06 12:37:38;;;;;;;1.00;1.00;;;8.80;99.90;;;;;;4977193;28;20169;-72
2021/05/06 12:40:10;;;;;;;1.83;1.10;;;8.80;99.90;;;;;;4976863;28;20279;-72
2021/05/06 12:42:37;;;;;;;1.40;1.20;;;8.80;99.90;;;;;;4977308;28;20196;-72
2021/05/06 12:45:15;;;;;;;2.42;1.02;;;8.80;99.90;;;;;;4976780;28;20248;-72
2021/05/06 12:47:49;;;;;;;0.75;0.75;;;9.00;99.90;;;;;;4975760;28;20215;-71
2021/05/06 12:50:21;;;;;;;0.68;0.63;;;8.90;99.90;;;;;;4977009;28;20634;-72
2021/05/06 12:52:56;;;;;;;1.52;1.27;;;8.70;99.90;;;;;;4977009;28;20185;-71
2021/05/06 12:55:26;;;;;;;0.85;0.85;;;8.70;99.90;;;;;;4976599;28;20272;-71
2021/05/06 12:58:05;;;;;;;5.15;0.93;;;8.80;99.90;;;;;;4976640;28;20178;-71
2021/05/06 13:00:33;;;;;;;1.05;0.95;;;8.60;99.90;;;;;;4976421;28;20211;-72
2021/05/06 13:03:04;;;;;;;1.95;1.02;;;8.60;99.90;;;;;;4976578;28;20169;-71
2021/05/06 13:05:35;;;;;;;0.82;0.82;;;8.60;99.90;;;;;;4976528;28;20179;-71
2021/05/06 13:08:03;;;;;;;1.02;1.02;;;8.60;99.90;;;;;;4976584;28;20180;-72
2021/05/06 13:10:41;;;;;;;0.70;0.70;;;8.70;99.90;;;;;;4976441;28;20201;-72
2021/05/06 13:13:08;;;;;;;0.70;0.68;;;8.80;99.90;;;;;;4976367;28;20192;-72
2021/05/06 13:15:51;;;;;;;0.73;0.73;;;8.90;99.90;;;;;;4976205;28;20724;-71
2021/05/06 13:18:18;;;;;;;0.65;0.65;;;9.00;99.90;;;;;;4976367;28;20643;-71
2021/05/06 13:20:45;;;;;;;0.85;0.85;;;8.90;99.90;;;;;;4976164;28;20205;-71
2021/05/06 13:23:13;;;;;;;0.60;0.60;;;8.80;99.90;;;;;;4976340;28;20176;-71
2021/05/06 13:25:41;;;;;;;1.38;0.57;;;8.70;99.90;;;;;;4975960;28;20180;-71
2021/05/06 13:28:07;;;;;;;0.77;0.77;;;8.60;99.90;;;;;;4976298;28;20173;-72
2021/05/06 13:30:33;;;;;;;0.82;0.82;;;8.70;99.90;;;;;;4976380;28;20609;-72
2021/05/06 13:33:11;;;;;;;0.80;0.80;;;8.70;99.90;;;;;;4976108;28;20179;-71
2021/05/06 13:35:36;;;;;;;0.68;0.68;;;8.70;99.90;;;;;;4975953;28;20175;-71
2021/05/06 13:38:02;;;;;;;1.13;1.00;;;8.70;99.90;;;;;;4975258;28;20172;-71
2021/05/06 13:40:28;;;;;;;0.70;0.70;;;8.80;99.90;;;;;;4975513;28;20674;-72
2021/05/06 13:42:53;;;;;;;0.60;0.60;;;8.80;99.90;;;;;;4976019;28;20169;-71
2021/05/06 13:45:19;;;;;;;2.63;1.07;;;8.90;99.90;;;;;;4975675;28;20179;-72
2021/05/06 13:47:48;;;;;;;0.60;0.60;;;8.70;99.90;;;;;;4975770;28;20665;-71
2021/05/06 13:50:17;;;;;;;2.45;0.88;;;8.60;99.90;;;;;;4975898;28;20172;-72
2021/05/06 13:52:44;;;;;;;0.60;0.60;;;8.60;99.90;;;;;;4975591;28;20181;-71
2021/05/06 13:55:10;;;;;;;1.92;0.73;;;8.60;99.90;;;;;;4975491;28;20628;-71
2021/05/06 13:57:37;;;;;;;0.70;0.68;;;8.50;99.90;;;;;;4975587;28;20179;-72
2021/05/06 14:00:04;;;;;;;0.80;0.80;;;8.60;99.90;;;;;;4975430;28;20192;-72
2021/05/06 14:02:30;;;;;;;1.50;0.65;;;8.60;99.90;;;;;;4975388;28;20274;-71
2021/05/06 14:04:56;;;;;;;0.70;0.70;;;8.50;99.90;;;;;;4975644;28;20252;-72
2021/05/06 14:07:21;;;;;;;1.33;0.80;;;8.40;99.90;;;;;;4975352;28;20404;-72
2021/05/06 14:09:47;;;;;;;0.93;0.90;;;8.50;99.90;;;;;;4975568;28;20260;-71
2021/05/06 14:12:12;;;;;;;0.63;0.60;;;8.50;99.90;;;;;;4975268;28;20233;-72
2021/05/06 14:14:38;;;;;;;1.03;0.83;;;8.50;99.90;;;;;;4975445;28;20232;-72
2021/05/06 14:17:04;;;;;;;1.03;0.83;;;8.60;99.90;;;;;;4975314;28;20198;-71
2021/05/06 14:19:30;;;;;;;2.03;1.07;;;8.50;99.90;;;;;;4975316;28;20209;-72
2021/05/06 14:21:56;;;;;;;0.50;0.50;;;8.60;99.90;;;;;;4975118;28;20979;-71
2021/05/06 14:24:22;;;;;;;0.95;0.75;;;8.60;99.90;;;;;;4975249;28;20660;-71
2021/05/06 14:26:49;;;;;;;0.60;0.60;;;8.60;99.90;;;;;;4975033;28;20215;-71
2021/05/06 14:29:19;;;;;;;0.57;0.57;;;8.60;99.90;;;;;;4975095;28;20616;-72
2021/05/06 14:31:45;;;;;;;0.90;0.90;;;8.70;99.90;;;;;;4975118;28;20565;-72
2021/05/06 14:34:11;;;;;;;0.70;0.70;;;8.60;99.90;;;;;;4974824;28;20172;-71
2021/05/06 14:36:36;;;;;;;0.90;0.90;;;8.70;99.90;;;;;;4974726;28;20645;-72
2021/05/06 14:39:04;;;;;;;0.60;0.60;;;8.70;99.90;;;;;;4974822;28;20169;-72
2021/05/06 14:41:30;;;;;;;0.50;0.50;;;8.70;99.90;;;;;;4974909;28;20475;-72
2021/05/06 14:43:57;;;;;;;1.30;1.20;;;8.70;99.90;;;;;;4974999;28;20589;-72
2021/05/06 14:46:23;;;;;;;1.10;1.10;;;8.80;99.90;;;;;;4974610;28;20168;-71
2021/05/06 14:48:49;;;;;;;0.85;0.80;;;8.60;99.90;;;;;;4974637;28;20582;-71
2021/05/06 14:51:15;;;;;;;0.70;0.70;;;8.70;99.90;;;;;;4974609;28;20201;-71
2021/05/06 14:53:41;;;;;;;0.98;0.90;;;8.70;99.90;;;;;;4974895;28;20180;-71
2021/05/06 14:56:06;;;;;;;0.70;0.70;;;8.70;99.90;;;;;;4974438;28;20192;-71
2021/05/06 14:58:32;;;;;;;0.83;0.83;;;8.70;99.90;;;;;;4974748;28;20414;-72
2021/05/06 15:00:58;;;;;;;0.70;0.53;;;8.70;99.90;;;;;;4973061;28;20223;-72
2021/05/06 15:03:25;;;;;;;1.85;0.70;;;8.70;99.90;;;;;;4973623;28;20247;-72
2021/05/06 15:05:51;;;;;;;0.50;0.50;;;8.60;99.90;;;;;;4973017;28;20207;-72
2021/05/06 15:08:20;;;;;;;0.53;0.53;;;8.70;99.90;;;;;;4974691;28;20208;-71
2021/05/06 15:10:46;;;;;;;0.70;0.70;;;8.80;99.90;;;;;;4974469;28;20188;-71
2021/05/06 15:13:11;;;;;;;0.70;0.63;;;8.80;99.90;;;;;;4974490;28;20256;-72
2021/05/06 15:15:37;;;;;;;0.60;0.60;;;8.90;99.90;;;;;;4974433;28;20412;-72
2021/05/06 15:18:03;;;;;;;0.50;0.50;;;9.10;99.90;;;;;;4974475;28;20586;-72
2021/05/06 15:20:30;;;;;;;0.50;0.50;;;9.20;99.90;;;;;;4974270;28;20668;-71
2021/05/06 15:22:55;;;;;;;0.50;0.50;;;9.30;99.90;;;;;;4974416;28;20411;-72
2021/05/06 15:25:22;;;;;;;0.50;0.50;;;9.40;99.90;;;;;;4974192;28;20522;-71
2021/05/06 15:27:49;;;;;;;0.88;0.88;;;9.50;99.90;;;;;;4974291;28;20165;-72
2021/05/06 15:30:19;;;;;;;1.98;1.83;;;9.40;99.90;;;;;;4973194;28;20177;-72
2021/05/06 15:32:44;;;;;;;0.90;0.60;;;9.50;99.90;;;;;;4974310;28;20511;-71
2021/05/06 15:35:12;;;;;;;0.70;0.60;;;9.40;99.90;;;;;;4974326;28;20223;-71
2021/05/06 15:37:37;;;;;;;0.50;0.50;;;9.40;99.90;;;;;;4973162;28;20415;-71
2021/05/06 15:40:05;;;;;;;0.50;0.50;;;9.60;99.90;;;;;;4974631;28;20204;-71
2021/05/06 15:42:31;;;;;;;0.47;0.47;;;9.60;99.90;;;;;;4974143;28;20607;-72
2021/05/06 15:44:57;;;;;;;0.50;0.50;;;9.70;99.90;;;;;;4974169;28;20173;-72
2021/05/06 15:47:23;;;;;;;0.50;0.50;;;9.60;99.90;;;;;;4974106;28;20404;-72
2021/05/06 15:49:48;;;;;;;0.77;0.77;;;9.60;99.90;;;;;;4974122;28;20492;-71
2021/05/06 15:52:14;;;;;;;0.87;0.50;;;9.60;99.90;;;;;;4974373;28;20197;-72
2021/05/06 15:54:40;;;;;;;0.93;0.93;;;9.50;99.90;;;;;;4974080;28;20471;-72
2021/05/06 15:57:07;;;;;;;0.40;0.40;;;9.50;99.90;;;;;;4972846;28;20188;-72
2021/05/06 15:59:35;;;;;;;0.55;0.55;;;9.60;99.90;;;;;;4974153;28;20208;-72
2021/05/06 16:02:01;;;;;;;0.40;0.40;;;9.60;99.90;;;;;;4975093;28;20204;-72
2021/05/06 16:04:34;;;;;;;0.50;0.50;;;9.60;99.90;;;;;;4977807;28;20653;-71
2021/05/06 16:07:00;;;;;;;0.50;0.50;;;9.60;99.90;;;;;;4977175;28;20429;-72
2021/05/06 16:09:26;;;;;;;0.50;0.50;;;9.50;99.90;;;;;;4977449;28;20677;-72
2021/05/06 16:11:53;;;;;;;0.65;0.50;;;9.30;99.90;;;;;;4976127;28;20300;-71
2021/05/06 16:14:19;;;;;;;1.75;0.45;;;9.30;99.90;;;;;;4977125;28;20548;-71
2021/05/06 16:16:45;;;;;;;0.40;0.40;;;9.20;99.90;;;;;;4977396;28;20260;-71
2021/05/06 16:19:11;;;;;;;0.50;0.50;;;9.30;99.90;;;;;;4977492;28;20263;-71
2021/05/06 16:21:37;;;;;;;0.70;0.70;;;9.30;99.90;;;;;;4977613;28;20432;-71
2021/05/06 16:24:04;;;;;;;0.50;0.50;;;9.30;99.90;;;;;;4976519;28;20177;-71